Time;durP1;ratioP1;P1;durP2;ratioP2;P2;SDS_P1;SDS_P2;PMS_P1;PMS_P2;Temp;Humidity;BMP_temperature;BMP_pressure;BME280_temperature;BME280_humidity;BME280_pressure;Samples;Min_cycle;Max_cycle;Signal;HPM_P1;HPM_P2
2021/10/07 00:02:16;;;;;;;4.88;1.90;;;8.70;98.00;;;;;;5059240;28;20170;-70
2021/10/07 00:04:41;;;;;;;4.40;1.60;;;8.70;98.00;;;;;;5078458;28;20032;-70
2021/10/07 00:07:07;;;;;;;8.95;2.80;;;8.70;98.00;;;;;;5077393;28;20028;-70
2021/10/07 00:09:33;;;;;;;3.75;1.50;;;8.70;98.00;;;;;;5073955;28;20032;-70
2021/10/07 00:12:00;;;;;;;3.75;1.55;;;8.60;98.00;;;;;;5076471;28;20326;-69
2021/10/07 00:14:26;;;;;;;6.30;1.67;;;8.60;98.00;;;;;;5064510;28;20029;-70
2021/10/07 00:16:52;;;;;;;6.72;1.70;;;8.70;98.00;;;;;;5075975;28;20294;-69
2021/10/07 00:19:17;;;;;;;4.88;1.52;;;8.70;98.00;;;;;;5068065;28;20068;-70
2021/10/07 00:21:46;;;;;;;5.68;1.60;;;8.70;98.00;;;;;;5074877;28;20033;-70
2021/10/07 00:24:12;;;;;;;3.90;1.65;;;8.70;98.00;;;;;;5074976;28;20071;-70
2021/10/07 00:26:45;;;;;;;6.72;1.65;;;8.70;98.00;;;;;;5059314;28;20052;-70
2021/10/07 00:31:40;;;;;;;9.13;1.67;;;8.60;98.00;;;;;;5074867;28;20072;-70
2021/10/07 00:39:07;;;;;;;5.03;1.73;;;8.50;98.00;;;;;;5073865;28;20028;-69
2021/10/07 00:41:41;;;;;;;5.90;1.90;;;8.50;98.00;;;;;;5072250;28;20029;-69
2021/10/07 00:44:09;;;;;;;;;;;8.50;98.00;;;;;;5059780;28;20555;-69
2021/10/07 00:46:45;;;;;;;3.22;1.48;;;8.50;98.00;;;;;;5072197;28;20220;-69
2021/10/07 00:49:11;;;;;;;5.47;2.30;;;8.50;98.00;;;;;;5071136;28;20020;-68
2021/10/07 00:51:37;;;;;;;7.72;2.10;;;8.50;98.00;;;;;;5074388;28;20081;-70
2021/10/07 00:54:03;;;;;;;7.38;2.60;;;8.40;98.00;;;;;;5074812;28;20032;-70
2021/10/07 00:56:29;;;;;;;6.38;2.13;;;8.40;98.00;;;;;;5075670;28;20050;-70
2021/10/07 00:58:55;;;;;;;4.82;1.98;;;8.30;98.00;;;;;;5077748;28;20025;-70
2021/10/07 01:01:20;;;;;;;6.03;2.08;;;8.40;98.00;;;;;;5071311;28;20025;-68
2021/10/07 01:03:49;;;;;;;5.97;1.60;;;8.40;98.00;;;;;;5077271;28;20046;-70
2021/10/07 01:06:17;;;;;;;7.63;2.03;;;8.40;98.00;;;;;;5077097;28;20086;-70
2021/10/07 01:08:43;;;;;;;6.97;1.70;;;8.40;98.00;;;;;;5074765;28;20341;-70
2021/10/07 01:11:09;;;;;;;8.27;2.00;;;8.50;98.00;;;;;;5064988;28;20036;-70
2021/10/07 01:13:39;;;;;;;3.88;1.70;;;8.50;98.00;;;;;;5076740;28;20031;-69
2021/10/07 01:16:08;;;;;;;3.65;1.50;;;8.50;98.00;;;;;;5070613;28;20021;-70
2021/10/07 01:18:34;;;;;;;3.60;1.42;;;8.40;98.00;;;;;;5058765;28;20044;-70
2021/10/07 01:21:01;;;;;;;5.82;2.08;;;8.40;98.00;;;;;;5074530;28;20058;-70
2021/10/07 01:23:27;;;;;;;4.03;1.52;;;8.30;98.00;;;;;;5069552;28;20321;-70
2021/10/07 01:25:52;;;;;;;4.22;1.25;;;8.40;98.00;;;;;;5072626;28;20028;-70
2021/10/07 01:28:18;;;;;;;3.53;1.40;;;8.40;98.00;;;;;;5076818;28;20024;-70
2021/10/07 01:30:48;;;;;;;3.95;1.50;;;8.40;98.00;;;;;;5073452;28;20036;-70
2021/10/07 01:33:13;;;;;;;5.53;1.27;;;8.40;98.00;;;;;;5074529;28;20323;-71
2021/10/07 01:35:46;;;;;;;4.30;1.63;;;8.40;98.00;;;;;;5062806;28;20036;-70
2021/10/07 01:38:11;;;;;;;4.47;1.20;;;8.40;98.00;;;;;;5061638;28;20060;-70
2021/10/07 01:40:41;;;;;;;5.55;1.40;;;8.50;98.00;;;;;;5076001;28;20062;-70
2021/10/07 01:43:07;;;;;;;3.08;1.25;;;8.50;98.00;;;;;;5076899;28;20043;-70
2021/10/07 01:45:33;;;;;;;4.15;1.52;;;8.40;98.00;;;;;;5070581;28;20037;-70
2021/10/07 01:47:58;;;;;;;3.70;1.58;;;8.40;98.00;;;;;;5074667;28;20032;-70
2021/10/07 01:50:24;;;;;;;3.17;1.42;;;8.40;98.00;;;;;;5075668;28;20024;-70
2021/10/07 01:52:50;;;;;;;2.90;1.25;;;8.40;98.00;;;;;;5068027;28;20033;-70
2021/10/07 01:55:15;;;;;;;5.22;1.52;;;8.40;98.00;;;;;;5068344;28;20021;-70
2021/10/07 01:57:41;;;;;;;4.40;1.70;;;8.40;98.00;;;;;;5067743;28;20463;-70
2021/10/07 02:00:09;;;;;;;3.38;1.65;;;8.50;98.00;;;;;;5073002;28;20035;-70
2021/10/07 02:02:35;;;;;;;3.83;1.30;;;8.40;98.00;;;;;;5064738;28;20107;-70
2021/10/07 02:05:00;;;;;;;5.38;1.60;;;8.40;98.00;;;;;;5075700;28;20104;-70
2021/10/07 02:07:26;;;;;;;3.28;1.63;;;8.30;98.00;;;;;;5074176;28;20082;-70
2021/10/07 02:09:51;;;;;;;2.10;1.13;;;8.30;98.00;;;;;;5072404;28;20035;-70
2021/10/07 02:12:17;;;;;;;3.20;1.38;;;8.30;98.00;;;;;;5056285;28;20040;-70
2021/10/07 02:14:43;;;;;;;4.65;1.50;;;8.30;98.00;;;;;;5056097;28;20413;-70
2021/10/07 02:17:08;;;;;;;7.47;1.70;;;8.30;98.00;;;;;;5071604;28;20051;-71
2021/10/07 02:19:34;;;;;;;4.22;1.50;;;8.30;98.00;;;;;;5072948;28;20041;-70
2021/10/07 02:22:00;;;;;;;6.30;1.40;;;8.40;98.00;;;;;;5059310;28;20332;-70
2021/10/07 02:24:26;;;;;;;4.20;1.55;;;8.40;98.00;;;;;;5063726;28;20040;-71
2021/10/07 02:26:52;;;;;;;3.33;1.30;;;8.40;98.00;;;;;;5067418;28;20028;-70
2021/10/07 02:29:18;;;;;;;3.25;1.30;;;8.40;98.00;;;;;;5068362;28;20044;-70
2021/10/07 02:31:46;;;;;;;5.13;1.50;;;8.40;98.00;;;;;;5073075;28;20032;-70
2021/10/07 02:34:12;;;;;;;3.95;1.38;;;8.40;98.00;;;;;;5073705;28;20116;-70
2021/10/07 02:36:38;;;;;;;6.78;1.50;;;8.40;98.00;;;;;;5075383;28;20100;-70
2021/10/07 02:39:04;;;;;;;3.05;1.27;;;8.40;98.00;;;;;;5073800;28;20020;-70
2021/10/07 02:41:31;;;;;;;3.45;1.13;;;8.40;98.00;;;;;;5073016;28;20394;-70
2021/10/07 02:43:57;;;;;;;4.25;1.50;;;8.50;98.00;;;;;;5062024;28;20111;-70
2021/10/07 02:46:23;;;;;;;3.28;1.23;;;8.50;98.00;;;;;;5066432;28;20029;-70
2021/10/07 02:48:48;;;;;;;3.47;1.30;;;8.50;98.00;;;;;;5067014;28;20029;-70
2021/10/07 02:51:14;;;;;;;5.10;1.67;;;8.50;98.00;;;;;;5075498;28;20082;-70
2021/10/07 02:53:41;;;;;;;5.82;1.42;;;8.50;98.00;;;;;;5072573;28;20020;-70
2021/10/07 02:56:07;;;;;;;3.65;1.60;;;8.50;98.00;;;;;;5075392;28;20056;-70
2021/10/07 02:58:34;;;;;;;3.55;1.42;;;8.60;98.00;;;;;;5075549;28;20060;-70
2021/10/07 03:01:00;;;;;;;4.90;1.50;;;8.50;98.00;;;;;;5074542;28;20116;-70
2021/10/07 03:03:25;;;;;;;4.18;1.52;;;8.50;98.00;;;;;;5074782;28;20024;-70
2021/10/07 03:05:52;;;;;;;4.60;1.30;;;8.50;98.00;;;;;;5075180;28;20433;-70
2021/10/07 03:08:17;;;;;;;3.83;1.70;;;8.40;98.00;;;;;;5074037;28;20077;-70
2021/10/07 03:10:43;;;;;;;7.47;1.40;;;8.50;98.00;;;;;;5073345;28;20108;-70
2021/10/07 03:13:09;;;;;;;3.20;1.40;;;8.50;98.00;;;;;;5071269;28;20367;-69
2021/10/07 03:15:35;;;;;;;6.03;1.55;;;8.50;98.00;;;;;;5066117;28;20031;-70
2021/10/07 03:18:01;;;;;;;3.55;1.25;;;8.40;98.00;;;;;;5069509;28;20048;-70
2021/10/07 03:20:27;;;;;;;2.40;1.30;;;8.40;98.00;;;;;;5066461;28;20106;-69
2021/10/07 03:22:58;;;;;;;2.55;1.27;;;8.40;98.00;;;;;;5071310;28;20025;-69
2021/10/07 03:25:24;;;;;;;3.03;1.42;;;8.50;98.00;;;;;;5065802;28;20020;-70
2021/10/07 03:27:49;;;;;;;3.63;1.63;;;8.40;98.00;;;;;;5074025;28;20123;-70
2021/10/07 03:30:16;;;;;;;3.55;1.40;;;8.30;98.00;;;;;;5069440;28;20036;-70
2021/10/07 03:32:42;;;;;;;3.63;1.50;;;8.30;98.00;;;;;;5061733;28;20033;-70
2021/10/07 03:35:08;;;;;;;3.88;1.48;;;8.30;98.00;;;;;;5073601;28;20108;-70
2021/10/07 03:37:34;;;;;;;4.38;1.45;;;8.30;98.00;;;;;;5077518;28;20099;-69
2021/10/07 03:39:59;;;;;;;3.55;1.20;;;8.30;98.00;;;;;;5069845;28;20108;-69
2021/10/07 03:42:27;;;;;;;5.22;1.52;;;8.30;98.00;;;;;;5072814;28;20053;-68
2021/10/07 03:44:53;;;;;;;2.85;1.38;;;8.30;98.00;;;;;;5067472;28;20039;-68
2021/10/07 03:47:19;;;;;;;3.65;1.63;;;8.40;97.90;;;;;;5077256;28;20025;-70
2021/10/07 03:49:45;;;;;;;3.88;1.60;;;8.40;98.00;;;;;;5076326;28;20027;-69
2021/10/07 03:52:10;;;;;;;4.88;1.60;;;8.50;98.00;;;;;;5074994;28;20028;-70
2021/10/07 03:54:36;;;;;;;5.95;1.95;;;8.50;98.00;;;;;;5076383;28;20060;-69
2021/10/07 03:57:02;;;;;;;3.53;1.60;;;8.50;98.00;;;;;;5076928;28;20600;-70
2021/10/07 03:59:27;;;;;;;4.75;1.50;;;8.50;98.00;;;;;;5077653;28;20037;-70
2021/10/07 04:01:53;;;;;;;4.82;1.50;;;8.60;98.00;;;;;;5068650;28;20436;-70
2021/10/07 04:04:19;;;;;;;7.55;1.95;;;8.60;98.00;;;;;;5063992;28;20020;-70
2021/10/07 04:06:44;;;;;;;3.72;1.70;;;8.60;98.00;;;;;;5071715;28;20032;-70
2021/10/07 04:09:10;;;;;;;5.53;1.90;;;8.70;98.00;;;;;;5077149;28;20413;-70
2021/10/07 04:11:35;;;;;;;2.80;1.42;;;8.70;98.00;;;;;;5073476;28;20036;-70
2021/10/07 04:14:01;;;;;;;4.82;1.85;;;8.60;98.00;;;;;;5076801;28;20039;-70
2021/10/07 04:16:27;;;;;;;4.57;1.48;;;8.60;98.00;;;;;;5060629;28;20032;-70
2021/10/07 04:18:55;;;;;;;3.72;1.63;;;8.60;98.00;;;;;;5072751;28;20117;-69
2021/10/07 04:21:23;;;;;;;3.05;1.52;;;8.60;98.00;;;;;;5070682;28;20369;-70
2021/10/07 04:23:49;;;;;;;4.00;1.65;;;8.60;98.00;;;;;;5067348;28;20029;-70
2021/10/07 04:26:14;;;;;;;4.70;1.60;;;8.60;98.00;;;;;;5074800;28;20028;-69
2021/10/07 04:28:42;;;;;;;3.13;1.40;;;8.60;98.00;;;;;;5060996;28;20029;-70
2021/10/07 04:31:08;;;;;;;5.88;1.52;;;8.70;98.00;;;;;;5062208;28;20032;-69
2021/10/07 04:33:34;;;;;;;3.60;1.63;;;8.70;98.00;;;;;;5068314;28;20070;-69
2021/10/07 04:35:59;;;;;;;6.30;2.17;;;8.70;98.00;;;;;;5068786;28;20111;-71
2021/10/07 04:38:25;;;;;;;6.43;2.70;;;8.70;98.00;;;;;;5073639;28;20409;-70
2021/10/07 04:40:50;;;;;;;2.55;1.55;;;8.80;98.00;;;;;;5071818;28;20032;-69
2021/10/07 04:43:17;;;;;;;4.75;1.70;;;8.70;98.00;;;;;;5074753;28;20108;-70
2021/10/07 04:45:43;;;;;;;3.05;1.40;;;8.70;98.00;;;;;;5066877;28;20052;-70
2021/10/07 04:48:09;;;;;;;3.30;1.55;;;8.60;98.00;;;;;;5070896;28;20056;-70
2021/10/07 04:50:34;;;;;;;3.28;1.60;;;8.70;98.00;;;;;;5068840;28;20063;-68
2021/10/07 04:53:00;;;;;;;5.35;1.58;;;8.70;98.00;;;;;;5065761;28;20314;-69
2021/10/07 04:55:26;;;;;;;3.70;1.50;;;8.60;98.00;;;;;;5059883;28;20058;-69
2021/10/07 04:57:52;;;;;;;5.93;1.83;;;8.70;98.00;;;;;;5060577;28;20032;-69
2021/10/07 05:00:17;;;;;;;5.03;2.67;;;8.80;98.00;;;;;;5063613;28;20032;-69
2021/10/07 05:02:45;;;;;;;5.63;1.60;;;8.80;98.00;;;;;;5067625;28;20032;-70
2021/10/07 05:05:11;;;;;;;3.60;1.63;;;8.70;98.00;;;;;;5065722;28;20032;-70
2021/10/07 05:07:41;;;;;;;3.42;1.50;;;8.70;98.00;;;;;;5055485;28;20027;-70
2021/10/07 05:10:08;;;;;;;3.70;1.60;;;8.70;98.00;;;;;;5060259;28;20024;-70
2021/10/07 05:12:34;;;;;;;12.55;7.38;;;8.70;98.00;;;;;;5072723;28;20023;-70
2021/10/07 05:15:00;;;;;;;8.00;2.50;;;8.70;98.00;;;;;;5076129;28;20025;-70
2021/10/07 05:17:26;;;;;;;5.68;2.45;;;8.60;98.00;;;;;;5076051;28;20348;-70
2021/10/07 05:19:52;;;;;;;5.65;2.22;;;8.50;98.00;;;;;;5076032;28;20120;-70
2021/10/07 05:22:18;;;;;;;5.75;1.77;;;8.50;98.00;;;;;;5075169;28;20534;-70
2021/10/07 05:24:43;;;;;;;5.15;1.70;;;8.50;98.00;;;;;;5076232;28;20028;-70
2021/10/07 05:27:13;;;;;;;3.88;1.40;;;8.40;98.00;;;;;;5075929;28;20021;-70
2021/10/07 05:29:38;;;;;;;5.10;1.77;;;8.40;98.00;;;;;;5074160;28;20078;-70
2021/10/07 05:32:04;;;;;;;3.63;1.48;;;8.40;98.00;;;;;;5075406;28;20025;-70
2021/10/07 05:34:30;;;;;;;2.60;1.35;;;8.40;98.00;;;;;;5075033;28;20107;-71
2021/10/07 05:36:55;;;;;;;3.60;1.40;;;8.30;97.90;;;;;;5074478;28;20021;-70
2021/10/07 05:39:21;;;;;;;3.92;1.35;;;8.30;97.90;;;;;;5075934;28;20025;-70
2021/10/07 05:41:47;;;;;;;3.92;1.50;;;8.30;97.70;;;;;;5074569;28;20064;-70
2021/10/07 05:44:12;;;;;;;5.85;1.60;;;8.40;97.70;;;;;;5075738;28;20104;-70
2021/10/07 05:46:38;;;;;;;4.22;1.95;;;8.30;97.60;;;;;;5075828;28;20033;-70
2021/10/07 05:49:05;;;;;;;4.10;1.67;;;8.30;97.50;;;;;;5075421;28;20067;-70
2021/10/07 05:51:31;;;;;;;4.10;2.08;;;8.40;97.60;;;;;;5075773;28;20111;-70
2021/10/07 05:53:59;;;;;;;4.88;1.40;;;8.30;97.70;;;;;;5074214;28;20098;-70
2021/10/07 05:56:25;;;;;;;5.57;1.65;;;8.30;97.70;;;;;;5075647;28;20024;-70
2021/10/07 05:58:51;;;;;;;3.53;1.27;;;8.30;97.80;;;;;;5074743;28;20024;-70
2021/10/07 06:01:17;;;;;;;3.70;1.50;;;8.40;97.70;;;;;;5075451;28;20358;-70
2021/10/07 06:03:42;;;;;;;3.13;1.50;;;8.50;98.00;;;;;;5075654;28;20044;-70
2021/10/07 06:06:08;;;;;;;2.58;1.55;;;8.50;98.00;;;;;;5073436;28;20047;-70
2021/10/07 06:08:34;;;;;;;6.68;2.38;;;8.60;98.00;;;;;;5074263;28;20056;-70
2021/10/07 06:10:59;;;;;;;7.43;2.35;;;8.60;98.00;;;;;;5073688;28;20066;-70
2021/10/07 06:13:25;;;;;;;6.30;2.90;;;8.60;98.00;;;;;;5075400;28;20137;-70
2021/10/07 06:15:51;;;;;;;4.97;2.33;;;8.60;98.00;;;;;;5075188;28;20021;-69
2021/10/07 06:18:19;;;;;;;6.07;2.13;;;8.70;98.00;;;;;;5074907;28;20048;-70
2021/10/07 06:20:45;;;;;;;2.70;1.48;;;8.70;97.90;;;;;;5074521;28;20028;-70
2021/10/07 06:23:10;;;;;;;2.90;1.20;;;8.70;98.00;;;;;;5073766;28;20093;-70
2021/10/07 06:25:37;;;;;;;5.55;2.00;;;8.80;98.00;;;;;;5075194;28;20055;-70
2021/10/07 06:28:04;;;;;;;4.10;1.73;;;8.80;98.00;;;;;;5074670;28;20039;-70
2021/10/07 06:30:30;;;;;;;3.80;2.00;;;8.90;98.00;;;;;;5075015;28;20669;-69
2021/10/07 06:32:59;;;;;;;4.45;1.45;;;9.00;98.00;;;;;;5073485;28;20410;-68
2021/10/07 06:35:25;;;;;;;5.25;1.60;;;9.10;98.00;;;;;;5075166;28;20017;-68
2021/10/07 06:37:52;;;;;;;9.43;3.08;;;9.10;98.00;;;;;;5073451;28;20027;-69
2021/10/07 06:40:18;;;;;;;4.38;1.80;;;9.10;98.00;;;;;;5074772;28;20039;-68
2021/10/07 06:42:44;;;;;;;4.50;1.70;;;9.10;98.00;;;;;;5074772;28;20029;-70
2021/10/07 06:45:10;;;;;;;5.18;2.20;;;9.20;98.00;;;;;;5073405;28;20994;-70
2021/10/07 06:47:37;;;;;;;4.38;1.70;;;9.20;98.00;;;;;;5074996;28;20094;-70
2021/10/07 06:50:06;;;;;;;4.25;1.42;;;9.30;98.00;;;;;;5073856;28;20027;-70
2021/10/07 06:52:32;;;;;;;8.02;3.08;;;9.30;98.00;;;;;;5073751;28;20115;-71
2021/10/07 06:54:58;;;;;;;6.32;2.40;;;9.30;98.00;;;;;;5074303;28;20039;-71
2021/10/07 06:57:24;;;;;;;8.38;2.10;;;9.20;98.00;;;;;;5074600;28;20021;-70
2021/10/07 06:59:49;;;;;;;5.70;2.55;;;9.20;98.00;;;;;;5074750;28;20094;-70
2021/10/07 07:02:15;;;;;;;8.35;3.47;;;9.20;98.00;;;;;;5074126;28;20031;-70
2021/10/07 07:04:41;;;;;;;11.77;4.32;;;9.20;98.00;;;;;;5074344;28;20103;-70
2021/10/07 07:07:06;;;;;;;14.35;6.20;;;9.20;98.00;;;;;;5072666;28;20078;-70
2021/10/07 07:09:32;;;;;;;9.75;3.33;;;9.30;98.00;;;;;;5074692;28;20032;-69
2021/10/07 07:11:58;;;;;;;5.78;3.00;;;9.30;98.00;;;;;;5074046;28;20036;-69
2021/10/07 07:14:23;;;;;;;7.40;2.92;;;9.20;98.00;;;;;;5074568;28;20417;-71
2021/10/07 07:16:49;;;;;;;6.15;2.90;;;9.20;98.00;;;;;;5074698;28;20036;-71
2021/10/07 07:19:15;;;;;;;8.00;3.67;;;9.20;98.00;;;;;;5073873;28;20449;-70
2021/10/07 07:21:41;;;;;;;6.90;3.22;;;9.30;98.00;;;;;;5073681;28;20326;-69
2021/10/07 07:24:07;;;;;;;11.27;3.88;;;9.40;98.00;;;;;;5072934;28;20440;-70
2021/10/07 07:26:35;;;;;;;6.03;2.78;;;9.40;98.00;;;;;;5061303;28;20017;-70
2021/10/07 07:29:01;;;;;;;5.15;2.60;;;9.40;98.00;;;;;;5074081;28;20032;-70
2021/10/07 07:31:28;;;;;;;7.10;2.90;;;9.30;98.00;;;;;;5063870;28;20115;-68
2021/10/07 07:33:54;;;;;;;5.05;2.75;;;9.30;98.00;;;;;;5053962;28;20021;-70
2021/10/07 07:36:24;;;;;;;8.77;3.45;;;9.30;98.00;;;;;;5067137;28;20020;-70
2021/10/07 07:38:50;;;;;;;8.00;3.28;;;9.30;98.00;;;;;;5073302;28;20150;-70
2021/10/07 07:41:18;;;;;;;7.13;3.50;;;9.30;98.00;;;;;;5061011;28;20434;-70
2021/10/07 07:43:45;;;;;;;13.95;4.90;;;9.30;98.00;;;;;;5071610;28;20028;-70
2021/10/07 07:46:11;;;;;;;10.15;4.03;;;9.30;98.00;;;;;;5073589;28;20029;-70
2021/10/07 07:48:37;;;;;;;9.88;3.30;;;9.30;98.00;;;;;;5073406;28;20421;-70
2021/10/07 07:51:04;;;;;;;6.57;2.83;;;9.30;98.00;;;;;;5072592;28;20124;-69
2021/10/07 07:53:30;;;;;;;6.85;2.63;;;9.40;98.00;;;;;;5073216;28;20027;-70
2021/10/07 07:55:56;;;;;;;9.48;3.25;;;9.50;98.00;;;;;;5073763;28;20112;-70
2021/10/07 07:58:22;;;;;;;5.90;2.67;;;9.70;98.00;;;;;;5073936;28;20029;-70
2021/10/07 08:00:48;;;;;;;5.07;2.40;;;9.90;98.00;;;;;;5074344;28;20033;-70
2021/10/07 08:03:15;;;;;;;6.07;2.60;;;10.10;98.00;;;;;;5069361;28;20033;-70
2021/10/07 08:05:40;;;;;;;6.90;2.60;;;10.20;98.00;;;;;;5054191;28;20029;-71
2021/10/07 08:08:06;;;;;;;6.57;2.60;;;10.20;98.00;;;;;;5070651;28;20029;-69
2021/10/07 08:10:33;;;;;;;7.82;2.83;;;10.40;98.00;;;;;;5073720;28;20036;-70
2021/10/07 08:13:00;;;;;;;4.13;2.53;;;10.40;98.00;;;;;;5073531;28;20355;-70
2021/10/07 08:15:26;;;;;;;5.90;2.58;;;10.40;98.00;;;;;;5073961;28;20051;-71
2021/10/07 08:17:52;;;;;;;6.05;2.85;;;10.40;98.00;;;;;;5073774;28;20128;-69
2021/10/07 08:20:19;;;;;;;5.93;2.60;;;10.40;98.00;;;;;;5073919;28;20021;-70
2021/10/07 08:22:47;;;;;;;6.07;2.47;;;10.50;98.00;;;;;;5076398;28;20028;-70
2021/10/07 08:25:15;;;;;;;6.05;2.83;;;10.60;98.00;;;;;;5076984;28;20103;-70
2021/10/07 08:27:41;;;;;;;11.10;4.70;;;10.60;98.00;;;;;;5077513;28;20043;-70
2021/10/07 08:30:09;;;;;;;6.55;3.45;;;10.60;98.00;;;;;;5076913;28;20040;-70
2021/10/07 08:32:36;;;;;;;5.05;2.55;;;10.80;98.00;;;;;;5077500;28;20031;-70
2021/10/07 08:35:02;;;;;;;8.70;3.40;;;10.80;98.00;;;;;;5076980;28;20020;-70
2021/10/07 08:37:28;;;;;;;6.25;3.20;;;11.10;98.00;;;;;;5075723;28;20044;-70
2021/10/07 08:39:53;;;;;;;4.75;2.67;;;11.10;98.00;;;;;;5077412;28;20024;-70
2021/10/07 08:42:20;;;;;;;8.23;2.97;;;11.30;98.00;;;;;;5076935;28;20035;-70
2021/10/07 08:44:45;;;;;;;5.65;2.88;;;11.40;98.00;;;;;;5077323;28;20024;-70
2021/10/07 08:47:16;;;;;;;5.10;2.75;;;11.50;98.00;;;;;;5076758;28;20012;-70
2021/10/07 08:49:43;;;;;;;6.97;2.80;;;11.60;97.60;;;;;;5077443;28;20421;-70
2021/10/07 08:52:13;;;;;;;5.15;3.13;;;11.70;96.90;;;;;;5075062;28;20119;-70
2021/10/07 08:54:39;;;;;;;6.38;3.13;;;11.60;97.00;;;;;;5076868;28;20359;-70
2021/10/07 08:57:07;;;;;;;6.05;3.40;;;11.60;97.40;;;;;;5076834;28;20025;-70
2021/10/07 08:59:35;;;;;;;6.30;3.15;;;11.50;97.50;;;;;;5076836;28;20035;-70
2021/10/07 09:02:04;;;;;;;7.50;3.20;;;11.30;97.80;;;;;;5076551;28;20372;-70
2021/10/07 09:04:35;;;;;;;6.03;2.92;;;11.10;98.00;;;;;;5076733;28;20024;-70
2021/10/07 09:07:09;;;;;;;6.45;3.47;;;11.10;98.00;;;;;;5074772;28;20029;-71
2021/10/07 09:09:40;;;;;;;9.50;3.65;;;11.00;98.00;;;;;;5060266;28;20343;-70
2021/10/07 09:12:09;;;;;;;7.15;3.40;;;10.80;98.00;;;;;;5056004;28;20071;-70
2021/10/07 09:14:43;;;;;;;9.27;4.22;;;10.50;98.00;;;;;;5056257;28;20033;-70
2021/10/07 09:17:10;;;;;;;6.85;3.15;;;10.50;98.00;;;;;;5055456;28;20026;-71
2021/10/07 09:19:44;;;;;;;6.22;3.38;;;10.80;98.00;;;;;;5055022;28;20029;-70
2021/10/07 09:22:25;;;;;;;6.85;3.78;;;11.30;98.00;;;;;;5057009;28;20109;-70
2021/10/07 09:24:55;;;;;;;6.35;3.28;;;11.70;98.00;;;;;;5076233;28;20078;-69
2021/10/07 09:27:27;;;;;;;7.85;3.90;;;11.80;97.10;;;;;;5075124;28;20425;-69
2021/10/07 09:29:54;;;;;;;5.88;3.45;;;12.10;97.10;;;;;;5075753;28;20028;-68
2021/10/07 09:32:36;;;;;;;7.72;3.45;;;12.20;96.30;;;;;;5074724;28;20278;-68
2021/10/07 09:35:08;;;;;;;9.63;3.83;;;12.30;96.30;;;;;;5075768;28;20052;-69
2021/10/07 09:37:36;;;;;;;10.32;3.47;;;12.30;95.60;;;;;;5073920;28;20082;-71
2021/10/07 09:40:06;;;;;;;5.70;3.30;;;12.50;95.40;;;;;;5075394;28;20021;-71
2021/10/07 09:42:44;;;;;;;6.80;3.42;;;12.90;95.00;;;;;;5075764;28;20322;-71
2021/10/07 09:45:16;;;;;;;7.65;3.67;;;13.30;93.80;;;;;;5075103;28;20073;-71
2021/10/07 09:47:59;;;;;;;10.27;4.03;;;13.50;92.10;;;;;;5074595;28;20020;-71
2021/10/07 09:50:41;;;;;;;13.63;8.68;;;13.40;92.00;;;;;;5075455;28;20071;-71
2021/10/07 09:53:16;;;;;;;7.32;3.55;;;13.30;93.00;;;;;;5074192;28;20032;-70
2021/10/07 09:55:45;;;;;;;6.85;3.03;;;13.30;93.20;;;;;;5075408;28;20005;-70
2021/10/07 09:58:12;;;;;;;6.60;3.20;;;13.20;93.10;;;;;;5075137;28;20363;-70
2021/10/07 10:00:41;;;;;;;7.63;2.92;;;13.30;92.10;;;;;;5075379;28;20019;-70
2021/10/07 10:03:09;;;;;;;7.80;3.20;;;13.20;91.70;;;;;;5074367;28;20313;-69
2021/10/07 10:05:36;;;;;;;7.20;3.38;;;13.30;91.80;;;;;;5072057;28;20455;-69
2021/10/07 10:08:07;;;;;;;5.90;2.80;;;13.30;91.90;;;;;;5068161;28;20029;-70
2021/10/07 10:10:37;;;;;;;5.15;2.83;;;13.50;91.60;;;;;;5054380;28;20055;-70
2021/10/07 10:13:05;;;;;;;4.40;2.50;;;13.90;91.40;;;;;;5055000;28;20314;-70
2021/10/07 10:15:35;;;;;;;6.30;2.53;;;14.10;87.80;;;;;;5055170;28;20017;-71
2021/10/07 10:18:08;;;;;;;5.28;2.70;;;14.20;89.50;;;;;;5054587;28;20051;-72
2021/10/07 10:20:38;;;;;;;6.67;3.00;;;14.20;89.60;;;;;;5055253;28;20163;-70
2021/10/07 10:23:09;;;;;;;8.55;2.50;;;14.50;90.10;;;;;;5053563;28;20154;-70
2021/10/07 10:25:51;;;;;;;5.68;2.85;;;14.90;87.20;;;;;;5055088;28;20029;-69
2021/10/07 10:28:30;;;;;;;7.05;2.30;;;15.00;88.10;;;;;;5054675;28;20051;-70
2021/10/07 10:31:07;;;;;;;4.45;2.17;;;15.10;86.90;;;;;;5053324;28;20025;-70
2021/10/07 10:33:45;;;;;;;4.90;2.30;;;15.50;86.00;;;;;;5062091;28;20322;-70
2021/10/07 10:36:28;;;;;;;4.10;2.10;;;15.80;84.10;;;;;;5073482;28;20494;-70
2021/10/07 10:39:14;;;;;;;4.35;2.10;;;15.90;83.20;;;;;;5073332;28;20016;-69
2021/10/07 10:41:58;;;;;;;4.03;2.20;;;15.70;84.40;;;;;;5074913;28;20029;-70
2021/10/07 10:44:26;;;;;;;4.43;2.22;;;15.40;84.20;;;;;;5074365;28;20024;-69
2021/10/07 10:47:22;;;;;;;4.65;2.22;;;15.30;84.00;;;;;;5074583;28;20020;-70
2021/10/07 10:49:50;;;;;;;4.40;2.15;;;15.40;84.20;;;;;;5074747;28;20024;-70
2021/10/07 10:52:22;;;;;;;4.78;2.40;;;15.30;84.20;;;;;;5071960;28;20020;-70
2021/10/07 10:54:59;;;;;;;4.15;2.25;;;14.90;83.70;;;;;;5074546;28;20021;-70
2021/10/07 10:57:31;;;;;;;6.25;2.53;;;14.60;86.40;;;;;;5074586;28;20024;-70
2021/10/07 11:00:14;;;;;;;6.00;2.25;;;14.60;86.10;;;;;;5074103;28;20094;-70
2021/10/07 11:02:48;;;;;;;4.82;2.00;;;14.90;86.20;;;;;;5073450;28;20035;-69
2021/10/07 11:05:18;;;;;;;;;;;15.10;85.10;;;;;;5070550;28;20446;-69
2021/10/07 11:07:45;;;;;;;4.90;2.20;;;15.20;84.20;;;;;;5053109;28;19905;-70
2021/10/07 11:10:28;;;;;;;7.30;2.47;;;15.10;84.60;;;;;;5053717;28;20021;-70
2021/10/07 11:12:58;;;;;;;5.18;2.13;;;15.20;85.30;;;;;;5053974;28;20047;-72
2021/10/07 11:15:29;;;;;;;5.15;2.47;;;15.40;83.20;;;;;;5054427;28;20032;-70
2021/10/07 11:17:56;;;;;;;5.57;2.60;;;15.50;82.80;;;;;;5053747;28;20037;-70
2021/10/07 11:20:31;;;;;;;6.57;3.25;;;15.60;83.10;;;;;;5054095;28;20095;-70
2021/10/07 11:23:11;;;;;;;5.65;2.95;;;15.30;83.40;;;;;;5052777;28;20116;-70
2021/10/07 11:25:41;;;;;;;5.30;2.42;;;15.10;84.60;;;;;;5054170;28;20381;-70
2021/10/07 11:28:08;;;;;;;4.40;1.95;;;15.50;84.80;;;;;;5053617;28;20032;-70
2021/10/07 11:30:36;;;;;;;5.00;2.17;;;15.80;81.70;;;;;;5054128;28;20303;-70
2021/10/07 11:33:06;;;;;;;5.85;2.33;;;16.00;81.80;;;;;;5056195;28;20032;-70
2021/10/07 11:35:32;;;;;;;5.13;2.10;;;16.20;80.70;;;;;;5073962;28;20021;-70
2021/10/07 11:38:05;;;;;;;3.72;1.95;;;16.20;79.60;;;;;;5072088;28;20427;-70
2021/10/07 11:40:53;;;;;;;4.72;2.08;;;16.10;81.30;;;;;;5074247;28;20331;-69
2021/10/07 11:43:27;;;;;;;6.35;2.38;;;17.00;79.80;;;;;;5073864;28;20111;-70
2021/10/07 11:46:00;;;;;;;4.38;1.83;;;17.70;77.10;;;;;;5073089;28;20116;-70
2021/10/07 11:48:26;;;;;;;5.35;2.15;;;17.00;76.20;;;;;;5073482;28;20032;-70
2021/10/07 11:51:03;;;;;;;3.63;1.80;;;16.50;79.80;;;;;;5074079;28;20020;-70
2021/10/07 11:53:29;;;;;;;4.95;2.45;;;17.00;79.10;;;;;;5072595;28;20316;-70
2021/10/07 11:55:55;;;;;;;6.50;2.42;;;17.50;77.20;;;;;;5074875;28;20026;-70
2021/10/07 11:58:21;;;;;;;7.22;3.03;;;17.40;78.00;;;;;;5077677;28;20070;-70
2021/10/07 12:00:51;;;;;;;6.85;3.63;;;17.00;78.10;;;;;;5071602;28;20322;-70
2021/10/07 12:03:26;;;;;;;7.63;3.90;;;16.10;80.00;;;;;;5057285;28;20050;-71
2021/10/07 12:06:01;;;;;;;5.88;3.95;;;16.50;81.30;;;;;;5057910;28;20025;-69
2021/10/07 12:08:30;;;;;;;7.50;4.30;;;16.80;79.10;;;;;;5056337;28;20383;-70
2021/10/07 12:10:58;;;;;;;6.75;3.65;;;16.00;82.10;;;;;;5057226;28;20029;-69
2021/10/07 12:13:27;;;;;;;8.15;3.40;;;15.60;83.80;;;;;;5057494;28;20418;-70
2021/10/07 12:16:04;;;;;;;5.72;3.28;;;15.30;83.80;;;;;;5057491;28;20052;-70
2021/10/07 12:18:34;;;;;;;5.05;3.13;;;14.80;85.10;;;;;;5057056;28;20045;-70
2021/10/07 12:21:07;;;;;;;5.35;2.90;;;14.60;85.20;;;;;;5056934;28;20052;-69
2021/10/07 12:23:49;;;;;;;7.25;4.35;;;14.70;85.50;;;;;;5071782;28;20028;-68
2021/10/07 12:26:28;;;;;;;6.63;3.97;;;14.40;86.50;;;;;;5076651;28;20108;-68
2021/10/07 12:29:06;;;;;;;8.63;4.50;;;14.10;87.60;;;;;;5077217;28;20325;-69
2021/10/07 12:31:32;;;;;;;8.20;4.20;;;13.90;88.10;;;;;;5076993;28;20032;-70
2021/10/07 12:34:02;;;;;;;6.35;4.05;;;14.00;88.40;;;;;;5076708;28;20066;-70
2021/10/07 12:36:32;;;;;;;7.18;4.15;;;14.10;88.80;;;;;;5077042;28;20027;-69
2021/10/07 12:39:00;;;;;;;6.55;3.97;;;14.10;88.10;;;;;;5075584;28;20090;-69
2021/10/07 12:41:40;;;;;;;6.10;3.53;;;13.80;88.50;;;;;;5076860;28;20029;-70
2021/10/07 12:44:16;;;;;;;7.68;4.18;;;13.80;89.50;;;;;;5076618;28;20028;-70
2021/10/07 12:46:44;;;;;;;7.80;3.80;;;13.40;90.50;;;;;;5076871;28;20028;-70
2021/10/07 12:49:11;;;;;;;6.93;3.88;;;13.10;91.00;;;;;;5056452;28;20017;-70
2021/10/07 12:51:44;;;;;;;7.32;4.03;;;13.00;91.60;;;;;;5055644;28;20350;-70
2021/10/07 12:54:12;;;;;;;10.90;4.68;;;12.80;92.10;;;;;;5054966;28;20013;-70
2021/10/07 12:56:41;;;;;;;7.53;4.25;;;12.60;93.10;;;;;;5056533;28;20010;-70
2021/10/07 12:59:07;;;;;;;9.23;4.07;;;12.60;93.00;;;;;;5056313;28;20029;-69
2021/10/07 13:01:40;;;;;;;6.32;3.22;;;12.80;93.20;;;;;;5056540;28;20067;-70
2021/10/07 13:04:20;;;;;;;10.80;3.83;;;12.90;91.70;;;;;;5056191;28;20052;-69
2021/10/07 13:06:51;;;;;;;6.75;3.47;;;12.80;91.80;;;;;;5056477;28;20021;-70